sensor_id;sensor_type;location;lat;lon;timestamp;temperature;humidity
19039;DHT22;9652;49.014;12.052;2023-03-03T00:00:49;6.60;58.30
19039;DHT22;9652;49.014;12.052;2023-03-03T00:03:18;6.60;58.30
19039;DHT22;9652;49.014;12.052;2023-03-03T00:05:48;6.60;58.30
19039;DHT22;9652;49.014;12.052;2023-03-03T00:08:15;6.50;58.30
19039;DHT22;9652;49.014;12.052;2023-03-03T00:10:43;6.50;58.30
19039;DHT22;9652;49.014;12.052;2023-03-03T00:13:15;6.50;58.30
19039;DHT22;9652;49.014;12.052;2023-03-03T00:15:44;6.50;58.40
19039;DHT22;9652;49.014;12.052;2023-03-03T00:18:24;6.50;58.30
19039;DHT22;9652;49.014;12.052;2023-03-03T00:20:59;6.50;58.60
19039;DHT22;9652;49.014;12.052;2023-03-03T00:23:34;6.50;58.50
19039;DHT22;9652;49.014;12.052;2023-03-03T00:26:12;6.50;58.50
19039;DHT22;9652;49.014;12.052;2023-03-03T00:28:46;6.40;58.30
19039;DHT22;9652;49.014;12.052;2023-03-03T00:31:17;6.50;58.30
19039;DHT22;9652;49.014;12.052;2023-03-03T00:33:48;6.40;58.30
19039;DHT22;9652;49.014;12.052;2023-03-03T00:36:35;6.40;58.30
19039;DHT22;9652;49.014;12.052;2023-03-03T00:39:25;6.40;58.50
19039;DHT22;9652;49.014;12.052;2023-03-03T00:41:55;6.40;58.50
19039;DHT22;9652;49.014;12.052;2023-03-03T00:44:37;6.30;58.10
19039;DHT22;9652;49.014;12.052;2023-03-03T00:47:25;6.30;58.40
19039;DHT22;9652;49.014;12.052;2023-03-03T00:49:58;6.30;58.50
19039;DHT22;9652;49.014;12.052;2023-03-03T00:52:56;6.30;58.20
19039;DHT22;9652;49.014;12.052;2023-03-03T00:55:27;6.20;58.40
19039;DHT22;9652;49.014;12.052;2023-03-03T00:57:54;6.20;58.20
19039;DHT22;9652;49.014;12.052;2023-03-03T01:00:27;6.20;58.30
19039;DHT22;9652;49.014;12.052;2023-03-03T01:02:54;6.10;58.30
19039;DHT22;9652;49.014;12.052;2023-03-03T01:05:22;6.10;58.30
19039;DHT22;9652;49.014;12.052;2023-03-03T01:07:50;6.10;58.40
19039;DHT22;9652;49.014;12.052;2023-03-03T01:10:18;6.00;58.40
19039;DHT22;9652;49.014;12.052;2023-03-03T01:12:45;6.00;58.40
19039;DHT22;9652;49.014;12.052;2023-03-03T01:15:14;6.00;58.50
19039;DHT22;9652;49.014;12.052;2023-03-03T01:17:41;6.00;58.50
19039;DHT22;9652;49.014;12.052;2023-03-03T01:20:11;5.90;58.50
19039;DHT22;9652;49.014;12.052;2023-03-03T01:22:40;5.90;58.60
19039;DHT22;9652;49.014;12.052;2023-03-03T01:25:10;5.90;58.60
19039;DHT22;9652;49.014;12.052;2023-03-03T01:27:38;5.80;58.60
19039;DHT22;9652;49.014;12.052;2023-03-03T01:30:07;5.80;58.60
19039;DHT22;9652;49.014;12.052;2023-03-03T01:32:36;5.80;58.70
19039;DHT22;9652;49.014;12.052;2023-03-03T01:35:04;5.80;58.70
19039;DHT22;9652;49.014;12.052;2023-03-03T01:37:33;5.70;58.70
19039;DHT22;9652;49.014;12.052;2023-03-03T01:40:02;5.70;58.80
19039;DHT22;9652;49.014;12.052;2023-03-03T01:42:31;5.70;58.80
19039;DHT22;9652;49.014;12.052;2023-03-03T01:45:14;5.70;58.80
19039;DHT22;9652;49.014;12.052;2023-03-03T01:47:46;5.70;59.10
19039;DHT22;9652;49.014;12.052;2023-03-03T01:50:25;5.60;58.90
19039;DHT22;9652;49.014;12.052;2023-03-03T01:52:59;5.70;59.00
19039;DHT22;9652;49.014;12.052;2023-03-03T01:55:31;5.60;58.90
19039;DHT22;9652;49.014;12.052;2023-03-03T01:58:06;5.60;58.90
19039;DHT22;9652;49.014;12.052;2023-03-03T02:00:37;5.60;59.10
19039;DHT22;9652;49.014;12.052;2023-03-03T02:03:06;5.60;59.00
19039;DHT22;9652;49.014;12.052;2023-03-03T02:05:34;5.50;58.90
19039;DHT22;9652;49.014;12.052;2023-03-03T02:08:03;5.50;58.90
19039;DHT22;9652;49.014;12.052;2023-03-03T02:10:34;5.50;59.00
19039;DHT22;9652;49.014;12.052;2023-03-03T02:13:03;5.50;59.00
19039;DHT22;9652;49.014;12.052;2023-03-03T02:15:31;5.40;59.00
19039;DHT22;9652;49.014;12.052;2023-03-03T02:18:03;5.40;59.10
19039;DHT22;9652;49.014;12.052;2023-03-03T02:20:38;5.40;59.20
19039;DHT22;9652;49.014;12.052;2023-03-03T02:23:16;5.40;59.20
19039;DHT22;9652;49.014;12.052;2023-03-03T02:26:05;5.40;59.20
19039;DHT22;9652;49.014;12.052;2023-03-03T02:28:36;5.40;59.20
19039;DHT22;9652;49.014;12.052;2023-03-03T02:31:09;5.40;59.10
19039;DHT22;9652;49.014;12.052;2023-03-03T02:33:38;5.40;59.10
19039;DHT22;9652;49.014;12.052;2023-03-03T02:36:08;5.40;59.10
19039;DHT22;9652;49.014;12.052;2023-03-03T02:38:42;5.30;59.00
19039;DHT22;9652;49.014;12.052;2023-03-03T02:41:25;5.30;59.10
19039;DHT22;9652;49.014;12.052;2023-03-03T02:44:00;5.30;59.10
19039;DHT22;9652;49.014;12.052;2023-03-03T02:46:32;5.30;59.10
19039;DHT22;9652;49.014;12.052;2023-03-03T02:49:00;5.30;59.10
19039;DHT22;9652;49.014;12.052;2023-03-03T02:51:29;5.30;59.60
19039;DHT22;9652;49.014;12.052;2023-03-03T02:53:56;5.20;59.00
19039;DHT22;9652;49.014;12.052;2023-03-03T02:56:27;5.20;59.60
19039;DHT22;9652;49.014;12.052;2023-03-03T02:58:54;5.20;59.00
19039;DHT22;9652;49.014;12.052;2023-03-03T03:01:22;5.20;59.00
19039;DHT22;9652;49.014;12.052;2023-03-03T03:03:51;5.20;59.00
19039;DHT22;9652;49.014;12.052;2023-03-03T03:06:21;5.20;59.00
19039;DHT22;9652;49.014;12.052;2023-03-03T03:08:48;5.20;59.00
19039;DHT22;9652;49.014;12.052;2023-03-03T03:11:15;5.20;59.00
19039;DHT22;9652;49.014;12.052;2023-03-03T03:13:44;5.20;59.00
19039;DHT22;9652;49.014;12.052;2023-03-03T03:16:12;5.30;59.10
19039;DHT22;9652;49.014;12.052;2023-03-03T03:18:39;5.10;59.00
19039;DHT22;9652;49.014;12.052;2023-03-03T03:21:08;5.10;59.00
19039;DHT22;9652;49.014;12.052;2023-03-03T03:23:38;5.10;59.10
19039;DHT22;9652;49.014;12.052;2023-03-03T03:26:06;5.10;59.10
19039;DHT22;9652;49.014;12.052;2023-03-03T03:28:34;5.00;59.10
19039;DHT22;9652;49.014;12.052;2023-03-03T03:31:05;5.00;59.10
19039;DHT22;9652;49.014;12.052;2023-03-03T03:33:33;5.00;59.20
19039;DHT22;9652;49.014;12.052;2023-03-03T03:36:02;5.00;59.10
19039;DHT22;9652;49.014;12.052;2023-03-03T03:38:31;5.00;59.20
19039;DHT22;9652;49.014;12.052;2023-03-03T03:40:59;4.90;59.20
19039;DHT22;9652;49.014;12.052;2023-03-03T03:43:26;4.90;59.20
19039;DHT22;9652;49.014;12.052;2023-03-03T03:45:54;4.90;59.20
19039;DHT22;9652;49.014;12.052;2023-03-03T03:48:22;4.90;59.20
19039;DHT22;9652;49.014;12.052;2023-03-03T03:50:50;4.90;59.30
19039;DHT22;9652;49.014;12.052;2023-03-03T03:53:18;4.80;59.30
19039;DHT22;9652;49.014;12.052;2023-03-03T03:55:46;4.80;59.30
19039;DHT22;9652;49.014;12.052;2023-03-03T03:58:15;4.80;59.30
19039;DHT22;9652;49.014;12.052;2023-03-03T04:00:47;4.80;59.30
19039;DHT22;9652;49.014;12.052;2023-03-03T04:03:16;4.80;59.40
19039;DHT22;9652;49.014;12.052;2023-03-03T04:05:46;4.70;59.30
19039;DHT22;9652;49.014;12.052;2023-03-03T04:08:13;4.70;59.40
19039;DHT22;9652;49.014;12.052;2023-03-03T04:10:42;4.70;59.40
19039;DHT22;9652;49.014;12.052;2023-03-03T04:13:10;4.70;59.50
19039;DHT22;9652;49.014;12.052;2023-03-03T04:15:38;4.70;59.40
19039;DHT22;9652;49.014;12.052;2023-03-03T04:18:05;4.60;59.50
19039;DHT22;9652;49.014;12.052;2023-03-03T04:20:32;4.60;59.50
19039;DHT22;9652;49.014;12.052;2023-03-03T04:23:02;4.60;59.50
19039;DHT22;9652;49.014;12.052;2023-03-03T04:25:31;4.60;59.50
19039;DHT22;9652;49.014;12.052;2023-03-03T04:27:58;4.60;59.50
19039;DHT22;9652;49.014;12.052;2023-03-03T04:30:25;4.60;59.50
19039;DHT22;9652;49.014;12.052;2023-03-03T04:32:55;4.50;59.50
19039;DHT22;9652;49.014;12.052;2023-03-03T04:35:25;4.60;59.60
19039;DHT22;9652;49.014;12.052;2023-03-03T04:37:52;4.50;59.60
19039;DHT22;9652;49.014;12.052;2023-03-03T04:40:21;4.50;59.60
19039;DHT22;9652;49.014;12.052;2023-03-03T04:42:50;4.50;59.60
19039;DHT22;9652;49.014;12.052;2023-03-03T04:45:17;4.50;59.60
19039;DHT22;9652;49.014;12.052;2023-03-03T04:47:46;4.50;59.70
19039;DHT22;9652;49.014;12.052;2023-03-03T04:50:13;4.50;60.40
19039;DHT22;9652;49.014;12.052;2023-03-03T04:52:41;4.50;59.80
19039;DHT22;9652;49.014;12.052;2023-03-03T04:55:09;4.50;59.80
19039;DHT22;9652;49.014;12.052;2023-03-03T04:57:40;4.50;59.90
19039;DHT22;9652;49.014;12.052;2023-03-03T05:00:08;4.40;59.90
19039;DHT22;9652;49.014;12.052;2023-03-03T05:02:37;4.50;60.00
19039;DHT22;9652;49.014;12.052;2023-03-03T05:05:05;4.50;60.10
19039;DHT22;9652;49.014;12.052;2023-03-03T05:07:34;4.50;61.10
19039;DHT22;9652;49.014;12.052;2023-03-03T05:10:01;4.50;60.40
19039;DHT22;9652;49.014;12.052;2023-03-03T05:12:28;4.50;60.60
19039;DHT22;9652;49.014;12.052;2023-03-03T05:14:57;4.60;60.80
19039;DHT22;9652;49.014;12.052;2023-03-03T05:17:24;4.60;60.90
19039;DHT22;9652;49.014;12.052;2023-03-03T05:19:51;4.70;61.00
19039;DHT22;9652;49.014;12.052;2023-03-03T05:22:18;4.70;61.10
19039;DHT22;9652;49.014;12.052;2023-03-03T05:24:45;4.80;61.10
19039;DHT22;9652;49.014;12.052;2023-03-03T05:27:13;4.80;61.00
19039;DHT22;9652;49.014;12.052;2023-03-03T05:29:41;5.10;61.00
19039;DHT22;9652;49.014;12.052;2023-03-03T05:32:09;5.00;60.80
19039;DHT22;9652;49.014;12.052;2023-03-03T05:34:36;5.00;60.80
19039;DHT22;9652;49.014;12.052;2023-03-03T05:37:03;5.10;60.70
19039;DHT22;9652;49.014;12.052;2023-03-03T05:39:32;5.10;60.70
19039;DHT22;9652;49.014;12.052;2023-03-03T05:41:59;5.20;60.60
19039;DHT22;9652;49.014;12.052;2023-03-03T05:44:26;5.20;60.50
19039;DHT22;9652;49.014;12.052;2023-03-03T05:46:54;5.30;60.30
19039;DHT22;9652;49.014;12.052;2023-03-03T05:49:23;5.30;60.10
19039;DHT22;9652;49.014;12.052;2023-03-03T05:51:50;5.30;59.90
19039;DHT22;9652;49.014;12.052;2023-03-03T05:54:17;5.40;59.80
19039;DHT22;9652;49.014;12.052;2023-03-03T05:56:44;5.40;59.60
19039;DHT22;9652;49.014;12.052;2023-03-03T05:59:11;5.40;59.50
19039;DHT22;9652;49.014;12.052;2023-03-03T06:01:38;5.40;59.40
19039;DHT22;9652;49.014;12.052;2023-03-03T06:04:05;5.40;59.30
19039;DHT22;9652;49.014;12.052;2023-03-03T06:06:34;5.40;59.20
19039;DHT22;9652;49.014;12.052;2023-03-03T06:09:01;5.40;59.00
19039;DHT22;9652;49.014;12.052;2023-03-03T06:11:29;5.40;59.00
19039;DHT22;9652;49.014;12.052;2023-03-03T06:13:56;5.40;58.90
19039;DHT22;9652;49.014;12.052;2023-03-03T06:16:23;5.30;58.80
19039;DHT22;9652;49.014;12.052;2023-03-03T06:18:50;5.30;58.80
19039;DHT22;9652;49.014;12.052;2023-03-03T06:21:17;5.30;58.80
19039;DHT22;9652;49.014;12.052;2023-03-03T06:23:46;5.30;58.80
19039;DHT22;9652;49.014;12.052;2023-03-03T06:26:13;5.30;58.80
19039;DHT22;9652;49.014;12.052;2023-03-03T06:28:40;5.20;58.80
19039;DHT22;9652;49.014;12.052;2023-03-03T06:31:07;5.20;58.80
19039;DHT22;9652;49.014;12.052;2023-03-03T06:33:34;5.20;58.70
19039;DHT22;9652;49.014;12.052;2023-03-03T06:36:02;5.20;58.80
19039;DHT22;9652;49.014;12.052;2023-03-03T06:38:29;5.10;58.70
19039;DHT22;9652;49.014;12.052;2023-03-03T06:40:57;5.10;58.80
19039;DHT22;9652;49.014;12.052;2023-03-03T06:43:26;5.10;58.80
19039;DHT22;9652;49.014;12.052;2023-03-03T06:45:53;5.10;58.80
19039;DHT22;9652;49.014;12.052;2023-03-03T06:48:20;5.10;58.80
19039;DHT22;9652;49.014;12.052;2023-03-03T06:50:47;5.10;58.80
19039;DHT22;9652;49.014;12.052;2023-03-03T06:53:16;5.10;58.80
19039;DHT22;9652;49.014;12.052;2023-03-03T06:55:44;5.10;58.90
19039;DHT22;9652;49.014;12.052;2023-03-03T06:58:14;5.10;58.90
19039;DHT22;9652;49.014;12.052;2023-03-03T07:00:43;5.10;59.00
19039;DHT22;9652;49.014;12.052;2023-03-03T07:03:14;5.20;59.10
19039;DHT22;9652;49.014;12.052;2023-03-03T07:05:43;5.20;59.10
19039;DHT22;9652;49.014;12.052;2023-03-03T07:08:14;5.20;59.00
19039;DHT22;9652;49.014;12.052;2023-03-03T07:10:43;5.20;59.00
19039;DHT22;9652;49.014;12.052;2023-03-03T07:13:18;5.30;59.10
19039;DHT22;9652;49.014;12.052;2023-03-03T07:15:48;5.30;59.00
19039;DHT22;9652;49.014;12.052;2023-03-03T07:18:27;5.30;59.00
19039;DHT22;9652;49.014;12.052;2023-03-03T07:21:12;5.40;59.00
19039;DHT22;9652;49.014;12.052;2023-03-03T07:23:43;5.40;58.90
19039;DHT22;9652;49.014;12.052;2023-03-03T07:26:13;5.50;58.90
19039;DHT22;9652;49.014;12.052;2023-03-03T07:28:44;5.50;58.90
19039;DHT22;9652;49.014;12.052;2023-03-03T07:31:27;5.50;59.00
19039;DHT22;9652;49.014;12.052;2023-03-03T07:33:58;5.60;59.00
19039;DHT22;9652;49.014;12.052;2023-03-03T07:36:28;5.60;58.90
19039;DHT22;9652;49.014;12.052;2023-03-03T07:38:58;5.70;59.00
19039;DHT22;9652;49.014;12.052;2023-03-03T07:41:27;5.70;58.90
19039;DHT22;9652;49.014;12.052;2023-03-03T07:44:04;5.80;58.80
19039;DHT22;9652;49.014;12.052;2023-03-03T07:46:36;5.80;58.80
19039;DHT22;9652;49.014;12.052;2023-03-03T07:49:20;5.90;58.70
19039;DHT22;9652;49.014;12.052;2023-03-03T07:51:52;6.00;58.70
19039;DHT22;9652;49.014;12.052;2023-03-03T07:54:32;6.10;58.80
19039;DHT22;9652;49.014;12.052;2023-03-03T07:57:12;6.10;58.80
19039;DHT22;9652;49.014;12.052;2023-03-03T07:59:48;6.20;58.80
19039;DHT22;9652;49.014;12.052;2023-03-03T08:02:32;6.30;58.90
19039;DHT22;9652;49.014;12.052;2023-03-03T08:05:30;6.40;58.90
19039;DHT22;9652;49.014;12.052;2023-03-03T08:08:21;6.50;58.60
19039;DHT22;9652;49.014;12.052;2023-03-03T08:10:56;6.60;58.50
19039;DHT22;9652;49.014;12.052;2023-03-03T08:13:27;6.80;58.70
19039;DHT22;9652;49.014;12.052;2023-03-03T08:16:00;6.80;58.50
19039;DHT22;9652;49.014;12.052;2023-03-03T08:18:34;7.00;58.30
19039;DHT22;9652;49.014;12.052;2023-03-03T08:21:05;7.00;58.00
19039;DHT22;9652;49.014;12.052;2023-03-03T08:23:34;7.10;58.00
19039;DHT22;9652;49.014;12.052;2023-03-03T08:26:01;7.10;57.80
19039;DHT22;9652;49.014;12.052;2023-03-03T08:28:29;7.00;57.70
19039;DHT22;9652;49.014;12.052;2023-03-03T08:30:57;7.20;57.80
19039;DHT22;9652;49.014;12.052;2023-03-03T08:33:24;7.20;57.90
19039;DHT22;9652;49.014;12.052;2023-03-03T08:35:51;7.30;57.90
19039;DHT22;9652;49.014;12.052;2023-03-03T08:38:20;7.40;57.90
19039;DHT22;9652;49.014;12.052;2023-03-03T08:40:49;7.40;57.80
19039;DHT22;9652;49.014;12.052;2023-03-03T08:43:16;7.50;57.90
19039;DHT22;9652;49.014;12.052;2023-03-03T08:45:47;7.60;57.80
19039;DHT22;9652;49.014;12.052;2023-03-03T08:48:17;7.70;57.60
19039;DHT22;9652;49.014;12.052;2023-03-03T08:50:45;7.70;57.50
19039;DHT22;9652;49.014;12.052;2023-03-03T08:53:13;7.80;57.70
19039;DHT22;9652;49.014;12.052;2023-03-03T08:55:41;7.90;57.60
19039;DHT22;9652;49.014;12.052;2023-03-03T08:58:09;8.00;57.50
19039;DHT22;9652;49.014;12.052;2023-03-03T09:00:36;8.00;57.50
19039;DHT22;9652;49.014;12.052;2023-03-03T09:03:04;8.10;57.40
19039;DHT22;9652;49.014;12.052;2023-03-03T09:05:35;8.20;57.40
19039;DHT22;9652;49.014;12.052;2023-03-03T09:08:06;8.30;57.30
19039;DHT22;9652;49.014;12.052;2023-03-03T09:10:35;8.40;57.30
19039;DHT22;9652;49.014;12.052;2023-03-03T09:13:07;8.40;57.20
19039;DHT22;9652;49.014;12.052;2023-03-03T09:15:39;8.50;57.10
19039;DHT22;9652;49.014;12.052;2023-03-03T09:18:14;8.60;57.10
19039;DHT22;9652;49.014;12.052;2023-03-03T09:20:45;8.60;56.80
19039;DHT22;9652;49.014;12.052;2023-03-03T09:23:28;8.70;57.00
19039;DHT22;9652;49.014;12.052;2023-03-03T09:26:17;8.80;56.80
19039;DHT22;9652;49.014;12.052;2023-03-03T09:28:51;8.90;56.80
19039;DHT22;9652;49.014;12.052;2023-03-03T09:31:24;9.00;57.00
19039;DHT22;9652;49.014;12.052;2023-03-03T09:33:52;9.10;56.80
19039;DHT22;9652;49.014;12.052;2023-03-03T09:36:25;9.10;56.80
19039;DHT22;9652;49.014;12.052;2023-03-03T09:38:55;9.20;56.80
19039;DHT22;9652;49.014;12.052;2023-03-03T09:41:52;9.30;56.70
19039;DHT22;9652;49.014;12.052;2023-03-03T09:44:51;9.30;56.60
19039;DHT22;9652;49.014;12.052;2023-03-03T09:47:46;9.40;56.30
19039;DHT22;9652;49.014;12.052;2023-03-03T09:50:29;9.50;56.30
19039;DHT22;9652;49.014;12.052;2023-03-03T09:53:12;9.60;56.30
19039;DHT22;9652;49.014;12.052;2023-03-03T09:55:49;9.70;56.10
19039;DHT22;9652;49.014;12.052;2023-03-03T09:58:31;9.70;56.20
19039;DHT22;9652;49.014;12.052;2023-03-03T10:01:34;9.80;56.00
19039;DHT22;9652;49.014;12.052;2023-03-03T10:04:28;9.90;55.90
19039;DHT22;9652;49.014;12.052;2023-03-03T10:07:20;10.00;55.90
19039;DHT22;9652;49.014;12.052;2023-03-03T10:10:15;10.10;55.70
19039;DHT22;9652;49.014;12.052;2023-03-03T10:13:07;10.20;55.60
19039;DHT22;9652;49.014;12.052;2023-03-03T10:16:06;10.20;55.70
19039;DHT22;9652;49.014;12.052;2023-03-03T10:18:50;10.30;55.40
19039;DHT22;9652;49.014;12.052;2023-03-03T10:21:23;10.40;55.50
19039;DHT22;9652;49.014;12.052;2023-03-03T10:24:08;10.50;55.60
19039;DHT22;9652;49.014;12.052;2023-03-03T10:27:01;10.50;55.40
19039;DHT22;9652;49.014;12.052;2023-03-03T10:29:43;10.60;55.00
19039;DHT22;9652;49.014;12.052;2023-03-03T10:32:42;10.70;55.10
19039;DHT22;9652;49.014;12.052;2023-03-03T10:38:33;10.80;54.80
19039;DHT22;9652;49.014;12.052;2023-03-03T10:41:18;10.80;55.10
19039;DHT22;9652;49.014;12.052;2023-03-03T10:44:14;10.90;55.20
19039;DHT22;9652;49.014;12.052;2023-03-03T10:47:00;11.00;54.80
19039;DHT22;9652;49.014;12.052;2023-03-03T10:49:54;11.10;55.10
19039;DHT22;9652;49.014;12.052;2023-03-03T10:52:32;11.10;54.80
19039;DHT22;9652;49.014;12.052;2023-03-03T10:55:20;11.20;55.00
19039;DHT22;9652;49.014;12.052;2023-03-03T10:58:28;11.30;54.70
19039;DHT22;9652;49.014;12.052;2023-03-03T11:01:15;11.40;54.70
19039;DHT22;9652;49.014;12.052;2023-03-03T11:04:13;11.60;54.90
19039;DHT22;9652;49.014;12.052;2023-03-03T11:06:54;11.50;54.40
19039;DHT22;9652;49.014;12.052;2023-03-03T11:09:51;11.60;54.60
19039;DHT22;9652;49.014;12.052;2023-03-03T11:12:38;11.80;54.40
19039;DHT22;9652;49.014;12.052;2023-03-03T11:15:29;11.80;54.60
19039;DHT22;9652;49.014;12.052;2023-03-03T11:18:13;12.00;54.40
19039;DHT22;9652;49.014;12.052;2023-03-03T11:20:51;12.00;54.30
19039;DHT22;9652;49.014;12.052;2023-03-03T11:23:50;12.10;54.50
19039;DHT22;9652;49.014;12.052;2023-03-03T11:26:42;12.20;54.10
19039;DHT22;9652;49.014;12.052;2023-03-03T11:29:27;12.30;54.10
19039;DHT22;9652;49.014;12.052;2023-03-03T11:32:13;12.30;53.80
19039;DHT22;9652;49.014;12.052;2023-03-03T11:34:59;12.50;54.20
19039;DHT22;9652;49.014;12.052;2023-03-03T11:37:37;12.50;53.60
19039;DHT22;9652;49.014;12.052;2023-03-03T11:40:15;12.50;53.60
19039;DHT22;9652;49.014;12.052;2023-03-03T11:42:57;12.50;53.50
19039;DHT22;9652;49.014;12.052;2023-03-03T11:45:34;12.60;53.20
19039;DHT22;9652;49.014;12.052;2023-03-03T11:48:12;12.60;53.50
19039;DHT22;9652;49.014;12.052;2023-03-03T11:50:50;12.70;53.50
19039;DHT22;9652;49.014;12.052;2023-03-03T11:53:28;12.70;53.50
19039;DHT22;9652;49.014;12.052;2023-03-03T11:56:14;12.80;53.50
19039;DHT22;9652;49.014;12.052;2023-03-03T11:58:53;12.90;53.30
19039;DHT22;9652;49.014;12.052;2023-03-03T12:01:32;12.90;53.40
19039;DHT22;9652;49.014;12.052;2023-03-03T12:04:04;13.00;53.40
19039;DHT22;9652;49.014;12.052;2023-03-03T12:06:49;13.10;53.40
19039;DHT22;9652;49.014;12.052;2023-03-03T12:09:38;13.10;53.00
19039;DHT22;9652;49.014;12.052;2023-03-03T12:12:14;13.20;53.00
19039;DHT22;9652;49.014;12.052;2023-03-03T12:14:58;13.20;53.30
19039;DHT22;9652;49.014;12.052;2023-03-03T12:17:49;13.30;52.30
19039;DHT22;9652;49.014;12.052;2023-03-03T12:20:31;13.30;52.40
19039;DHT22;9652;49.014;12.052;2023-03-03T12:23:15;13.40;52.70
19039;DHT22;9652;49.014;12.052;2023-03-03T12:25:59;13.40;52.50
19039;DHT22;9652;49.014;12.052;2023-03-03T12:28:34;13.50;52.80
19039;DHT22;9652;49.014;12.052;2023-03-03T12:31:15;13.50;52.60
19039;DHT22;9652;49.014;12.052;2023-03-03T12:33:54;13.50;52.10
19039;DHT22;9652;49.014;12.052;2023-03-03T12:36:35;13.60;52.60
19039;DHT22;9652;49.014;12.052;2023-03-03T12:39:24;13.60;52.10
19039;DHT22;9652;49.014;12.052;2023-03-03T12:42:09;13.70;52.20
19039;DHT22;9652;49.014;12.052;2023-03-03T12:44:46;13.70;52.40
19039;DHT22;9652;49.014;12.052;2023-03-03T12:47:24;13.80;52.40
19039;DHT22;9652;49.014;12.052;2023-03-03T12:50:02;13.80;52.10
19039;DHT22;9652;49.014;12.052;2023-03-03T12:52:51;13.90;52.10
19039;DHT22;9652;49.014;12.052;2023-03-03T12:55:40;13.90;52.20
19039;DHT22;9652;49.014;12.052;2023-03-03T12:58:22;14.00;52.00
19039;DHT22;9652;49.014;12.052;2023-03-03T13:01:06;14.00;52.10
19039;DHT22;9652;49.014;12.052;2023-03-03T13:03:54;14.00;52.10
19039;DHT22;9652;49.014;12.052;2023-03-03T13:06:29;14.10;52.00
19039;DHT22;9652;49.014;12.052;2023-03-03T13:09:06;14.10;52.10
19039;DHT22;9652;49.014;12.052;2023-03-03T13:11:54;14.30;51.90
19039;DHT22;9652;49.014;12.052;2023-03-03T13:14:43;14.20;51.80
19039;DHT22;9652;49.014;12.052;2023-03-03T13:17:21;14.20;51.80
19039;DHT22;9652;49.014;12.052;2023-03-03T13:19:56;14.40;51.80
19039;DHT22;9652;49.014;12.052;2023-03-03T13:22:33;14.30;51.50
19039;DHT22;9652;49.014;12.052;2023-03-03T13:25:26;14.30;51.30
19039;DHT22;9652;49.014;12.052;2023-03-03T13:28:09;14.30;51.30
19039;DHT22;9652;49.014;12.052;2023-03-03T13:30:47;14.40;51.30
19039;DHT22;9652;49.014;12.052;2023-03-03T13:33:20;14.40;51.10
19039;DHT22;9652;49.014;12.052;2023-03-03T13:35:54;14.50;51.20
19039;DHT22;9652;49.014;12.052;2023-03-03T13:38:27;14.60;51.30
19039;DHT22;9652;49.014;12.052;2023-03-03T13:41:03;14.50;51.10
19039;DHT22;9652;49.014;12.052;2023-03-03T13:43:40;14.50;51.00
19039;DHT22;9652;49.014;12.052;2023-03-03T13:46:15;14.60;50.90
19039;DHT22;9652;49.014;12.052;2023-03-03T13:49:02;14.60;50.90
19039;DHT22;9652;49.014;12.052;2023-03-03T13:52:00;14.70;50.80
19039;DHT22;9652;49.014;12.052;2023-03-03T13:54:51;14.70;50.80
19039;DHT22;9652;49.014;12.052;2023-03-03T13:57:38;14.70;50.30
19039;DHT22;9652;49.014;12.052;2023-03-03T14:00:29;14.80;50.30
19039;DHT22;9652;49.014;12.052;2023-03-03T14:03:28;14.80;50.00
19039;DHT22;9652;49.014;12.052;2023-03-03T14:06:09;14.90;49.90
19039;DHT22;9652;49.014;12.052;2023-03-03T14:08:59;14.80;50.40
19039;DHT22;9652;49.014;12.052;2023-03-03T14:11:48;14.90;50.00
19039;DHT22;9652;49.014;12.052;2023-03-03T14:14:32;15.00;50.40
19039;DHT22;9652;49.014;12.052;2023-03-03T14:17:17;15.00;50.00
19039;DHT22;9652;49.014;12.052;2023-03-03T14:19:58;15.10;50.00
19039;DHT22;9652;49.014;12.052;2023-03-03T14:22:44;15.10;49.90
19039;DHT22;9652;49.014;12.052;2023-03-03T14:25:17;15.10;49.70
19039;DHT22;9652;49.014;12.052;2023-03-03T14:28:04;15.20;50.10
19039;DHT22;9652;49.014;12.052;2023-03-03T14:30:39;15.20;49.20
19039;DHT22;9652;49.014;12.052;2023-03-03T14:33:25;15.20;50.00
19039;DHT22;9652;49.014;12.052;2023-03-03T14:36:11;15.20;48.90
19039;DHT22;9652;49.014;12.052;2023-03-03T14:38:47;15.30;49.40
19039;DHT22;9652;49.014;12.052;2023-03-03T14:41:18;15.30;49.50
19039;DHT22;9652;49.014;12.052;2023-03-03T14:43:58;15.30;49.90
19039;DHT22;9652;49.014;12.052;2023-03-03T14:46:35;15.40;49.60
19039;DHT22;9652;49.014;12.052;2023-03-03T14:49:14;15.40;49.80
19039;DHT22;9652;49.014;12.052;2023-03-03T14:52:00;15.50;49.50
19039;DHT22;9652;49.014;12.052;2023-03-03T14:54:33;15.60;49.20
19039;DHT22;9652;49.014;12.052;2023-03-03T14:57:10;15.70;49.50
19039;DHT22;9652;49.014;12.052;2023-03-03T14:59:54;15.70;48.80
19039;DHT22;9652;49.014;12.052;2023-03-03T15:02:29;15.80;48.40
19039;DHT22;9652;49.014;12.052;2023-03-03T15:05:22;15.80;48.90
19039;DHT22;9652;49.014;12.052;2023-03-03T15:07:52;15.90;48.80
19039;DHT22;9652;49.014;12.052;2023-03-03T15:10:33;15.90;49.00
19039;DHT22;9652;49.014;12.052;2023-03-03T15:13:26;15.90;48.10
19039;DHT22;9652;49.014;12.052;2023-03-03T15:16:03;16.00;47.80
19039;DHT22;9652;49.014;12.052;2023-03-03T15:19:00;16.00;48.40
19039;DHT22;9652;49.014;12.052;2023-03-03T15:22:04;16.00;47.40
19039;DHT22;9652;49.014;12.052;2023-03-03T15:24:43;16.00;47.90
19039;DHT22;9652;49.014;12.052;2023-03-03T15:27:20;16.10;48.00
19039;DHT22;9652;49.014;12.052;2023-03-03T15:30:01;16.10;47.70
19039;DHT22;9652;49.014;12.052;2023-03-03T15:32:42;16.30;47.60
19039;DHT22;9652;49.014;12.052;2023-03-03T15:35:24;16.00;47.40
19039;DHT22;9652;49.014;12.052;2023-03-03T15:38:04;16.00;47.70
19039;DHT22;9652;49.014;12.052;2023-03-03T15:40:46;15.90;46.90
19039;DHT22;9652;49.014;12.052;2023-03-03T15:43:21;15.80;47.00
19039;DHT22;9652;49.014;12.052;2023-03-03T15:46:04;15.70;46.80
19039;DHT22;9652;49.014;12.052;2023-03-03T15:48:46;15.50;46.70
19039;DHT22;9652;49.014;12.052;2023-03-03T15:51:31;15.40;46.70
19039;DHT22;9652;49.014;12.052;2023-03-03T15:54:24;15.30;46.80
19039;DHT22;9652;49.014;12.052;2023-03-03T15:57:04;15.10;46.60
19039;DHT22;9652;49.014;12.052;2023-03-03T16:00:05;15.00;47.00
19039;DHT22;9652;49.014;12.052;2023-03-03T16:02:57;14.90;46.90
19039;DHT22;9652;49.014;12.052;2023-03-03T16:05:30;14.70;47.40
19039;DHT22;9652;49.014;12.052;2023-03-03T16:08:04;14.60;47.30
19039;DHT22;9652;49.014;12.052;2023-03-03T16:10:46;14.50;47.30
19039;DHT22;9652;49.014;12.052;2023-03-03T16:13:29;14.40;47.30
19039;DHT22;9652;49.014;12.052;2023-03-03T16:16:19;14.30;47.40
19039;DHT22;9652;49.014;12.052;2023-03-03T16:19:01;14.20;47.50
19039;DHT22;9652;49.014;12.052;2023-03-03T16:21:52;14.10;47.50
19039;DHT22;9652;49.014;12.052;2023-03-03T16:24:37;14.00;47.50
19039;DHT22;9652;49.014;12.052;2023-03-03T16:27:14;13.90;47.70
19039;DHT22;9652;49.014;12.052;2023-03-03T16:29:58;13.90;47.70
19039;DHT22;9652;49.014;12.052;2023-03-03T16:32:36;13.80;47.80
19039;DHT22;9652;49.014;12.052;2023-03-03T16:35:18;13.70;47.80
19039;DHT22;9652;49.014;12.052;2023-03-03T16:37:55;13.60;47.90